Stock Island, Florida
Current Conditions -  °F | °C
As of 5:53 PM on Thursday 18 Dec 2014 (Local Time) from KEYW Reporting Station
Clear Clear  
Wind Chill: 69°   Ceiling: Unl
Heat Index: 69°   Visibility: 10mi
Dew Point: 63°   Wind: 6mph
Humidity: 81%   Direction: 20°NNE
Pressure: 30.08"   Gusts: NA
Location:  24.5554°N, 81.8052°W
Report Text: KEYW 182253Z 02005KT 10SM CLR 21/17 A3008 RMK AO2 SLP186 T02060172
Loading
Personal Weather Stations






























Interactive Weather Map New forecast layout! Learn more

10-Day Weather Forecast

Advertisements
Track Severe Weather on mobile